Jill P. Harvey — WDC2466 — position and weather

sailwx.info

Track history (hours):
 
Tides and Currents Weather Stations Pressure Air Temp Water Temp Dewpoint Dewpoint Depression Visibility Wind Speed Wind Dir Waves Ship Positions

Jill P. Harvey

Owner: Florida Marine, LLC, Mandeville, LA. More information available from US FCC via Universal Licensing System and Coast Guard Vessel Documentation Center.

Last reported at 2017-Oct-19 23:56 UTC. Time now 2017-Oct-20 01:33 UTC.
Position N 29°34' W 090°56'.

Length 35 m; draft 3.2 m.

Type: Towing. MMSI: 366993550.

Date/timePositionNaut miles runAvg speedWind from/ knotsBaromVisibWave heightAir tempDewpointWater temp
2017-Oct-19 23:56N 29°34' W 090°56'3 5.7
2017-Oct-19 23:28N 29°33' W 090°53'3 5.4
2017-Oct-19 23:00N 29°32' W 090°50'3 5.6
2017-Oct-19 22:30N 29°32' W 090°47'2 4.5
2017-Oct-19 22:01N 29°33' W 090°45'2 4.0
2017-Oct-19 21:31N 29°34' W 090°43'2 4.2
2017-Oct-19 21:00N 29°36' W 090°43'1 1.9
2017-Oct-19 20:31N 29°37' W 090°42'0 0.4
2017-Oct-19 20:01N 29°37' W 090°41'1 2.5
2017-Oct-19 19:30N 29°36' W 090°40'0 0.0
2017-Oct-19 19:00N 29°36' W 090°40'0 0.0
2017-Oct-19 18:30N 29°36' W 090°40'0 0.0
2017-Oct-19 18:00N 29°36' W 090°40'0 0.0
2017-Oct-19 17:31N 29°36' W 090°40'0 0.0
2017-Oct-19 17:01N 29°36' W 090°40'0 0.0
2017-Oct-19 16:31N 29°36' W 090°40'0 0.0
2017-Oct-19 16:00N 29°36' W 090°40'1 1.3
2017-Oct-19 15:30N 29°36' W 090°39'2 4.4
2017-Oct-19 15:01N 29°35' W 090°37'2 4.0
2017-Oct-19 14:30N 29°35' W 090°35'2 4.7
2017-Oct-19 14:00N 29°34' W 090°32'2 5.0
2017-Oct-19 13:30N 29°34' W 090°30'  
2017-Oct-14 04:08N 29°50' W 091°60'1 5.6
2017-Oct-14 04:00N 29°50' W 092°00'2 5.1
2017-Oct-14 03:30N 29°49' W 092°03'3 5.4
2017-Oct-14 03:01N 29°48' W 092°06'3 5.5
2017-Oct-14 02:31N 29°47' W 092°09'3 5.4
2017-Oct-14 02:00N 29°47' W 092°12'3 5.4
2017-Oct-14 01:30N 29°48' W 092°15'3 5.6
2017-Oct-14 01:00N 29°50' W 092°18'41 5.1
2017-Oct-13 16:53N 29°56' W 093°05'2 4.2
2017-Oct-13 16:30N 29°56' W 093°07'3 5.2
2017-Oct-13 16:01N 29°56' W 093°10'3 5.5
2017-Oct-13 15:31N 29°58' W 093°12'3 5.3
2017-Oct-13 15:00N 30°01' W 093°14'1 2.4
2017-Oct-13 14:30N 30°02' W 093°14'2 3.0
2017-Oct-13 14:01N 30°03' W 093°16'2 4.9
2017-Oct-13 13:31N 30°05' W 093°17'1 2.7
2017-Oct-13 13:00N 30°06' W 093°18'2 3.5
2017-Oct-13 12:30N 30°05' W 093°20'3 5.0
2017-Oct-13 12:00N 30°04' W 093°22'3 5.4
2017-Oct-13 11:31N 30°04' W 093°25'2 4.1
2017-Oct-13 11:01N 30°04' W 093°28'3 5.4
2017-Oct-13 10:30N 30°04' W 093°31'3 5.4
2017-Oct-13 09:59N 30°04' W 093°34'3 5.2
2017-Oct-13 09:30N 30°04' W 093°37'3 5.4
2017-Oct-13 09:00N 30°04' W 093°40'2 4.7
2017-Oct-13 08:30N 30°03' W 093°43'2 4.4
2017-Oct-13 08:00N 30°01' W 093°44'2 3.4
2017-Oct-13 07:30N 30°00' W 093°46'0 0.1
2017-Oct-13 07:00N 30°00' W 093°46'5 3.5
2017-Oct-13 05:31N 29°58' W 093°51'0 2.7
2017-Oct-13 05:28N 29°58' W 093°51'2 0.1
2017-Oct-12 05:43N 29°59' W 093°50'3 4.1
2017-Oct-12 05:03N 29°60' W 093°47'0 3.7
2017-Oct-12 05:00N 29°60' W 093°47'1 2.5
2017-Oct-12 04:30N 30°01' W 093°46'0 0.0
2017-Oct-12 04:00N 30°01' W 093°46'0 0.1
2017-Oct-12 03:30N 30°01' W 093°46'2 2.8
2017-Oct-12 02:48N 30°02' W 093°44'1 4.3
2017-Oct-12 02:30N 30°03' W 093°43'3 5.1
2017-Oct-12 02:00N 30°04' W 093°40'2 4.9
2017-Oct-12 01:30N 30°04' W 093°38'2 4.8
2017-Oct-12 01:00N 30°04' W 093°35'2 4.6
2017-Oct-12 00:30N 30°04' W 093°32'2 4.5
2017-Oct-12 00:00N 30°04' W 093°29'2 4.8
2017-Oct-11 23:31N 30°04' W 093°27'2 4.7
2017-Oct-11 23:01N 30°04' W 093°24'2 4.2
2017-Oct-11 22:31N 30°04' W 093°22'1 2.9
2017-Oct-11 22:00N 30°05' W 093°20'2 3.5
2017-Oct-11 21:30N 30°06' W 093°19'1 2.1
2017-Oct-11 21:00N 30°06' W 093°18'1 2.8
2017-Oct-11 20:30N 30°05' W 093°17'0 0.5
2017-Oct-11 20:00N 30°04' W 093°16'0 0.1
2017-Oct-11 19:30N 30°04' W 093°16'0 0.1
2017-Oct-11 19:00N 30°05' W 093°16'0 0.0
2017-Oct-11 18:30N 30°05' W 093°16'0 0.0
2017-Oct-11 18:01N 30°05' W 093°16'0 0.0
2017-Oct-11 17:31N 30°05' W 093°16'0 0.0
2017-Oct-11 17:00N 30°05' W 093°16'59 3.5
2017-Oct-11 00:00N 29°47' W 092°12'1 2.1
2017-Oct-10 23:30N 29°47' W 092°11'2 3.7
2017-Oct-10 23:01N 29°47' W 092°09'3 5.2
2017-Oct-10 22:31N 29°48' W 092°06'2 5.0
2017-Oct-10 22:00N 29°49' W 092°03'  
Track history (hours):
 
Tides and Currents Weather Stations Pressure Air Temp Water Temp Dewpoint Dewpoint Depression Visibility Wind Speed Wind Dir Waves Ship Positions

Jill P. Harvey

Owner: Florida Marine, LLC, Mandeville, LA. More information available from US FCC via Universal Licensing System and Coast Guard Vessel Documentation Center.

Last reported at 2017-Oct-19 23:56 UTC. Time now 2017-Oct-20 01:33 UTC.
Position N 29°34' W 090°56'.

Length 35 m; draft 3.2 m.

Type: Towing. MMSI: 366993550.

Date/timePositionNaut miles runAvg speedWind from/ knotsBaromVisibWave heightAir tempDewpointWater temp
2017-Oct-19 23:56N 29°34' W 090°56'3 5.7
2017-Oct-19 23:28N 29°33' W 090°53'3 5.4
2017-Oct-19 23:00N 29°32' W 090°50'3 5.6
2017-Oct-19 22:30N 29°32' W 090°47'2 4.5
2017-Oct-19 22:01N 29°33' W 090°45'2 4.0
2017-Oct-19 21:31N 29°34' W 090°43'2 4.2
2017-Oct-19 21:00N 29°36' W 090°43'1 1.9
2017-Oct-19 20:31N 29°37' W 090°42'0 0.4
2017-Oct-19 20:01N 29°37' W 090°41'1 2.5
2017-Oct-19 19:30N 29°36' W 090°40'0 0.0
2017-Oct-19 19:00N 29°36' W 090°40'0 0.0
2017-Oct-19 18:30N 29°36' W 090°40'0 0.0
2017-Oct-19 18:00N 29°36' W 090°40'0 0.0
2017-Oct-19 17:31N 29°36' W 090°40'0 0.0
2017-Oct-19 17:01N 29°36' W 090°40'0 0.0
2017-Oct-19 16:31N 29°36' W 090°40'0 0.0
2017-Oct-19 16:00N 29°36' W 090°40'1 1.3
2017-Oct-19 15:30N 29°36' W 090°39'2 4.4
2017-Oct-19 15:01N 29°35' W 090°37'2 4.0
2017-Oct-19 14:30N 29°35' W 090°35'2 4.7
2017-Oct-19 14:00N 29°34' W 090°32'2 5.0
2017-Oct-19 13:30N 29°34' W 090°30'  
2017-Oct-14 04:08N 29°50' W 091°60'1 5.6
2017-Oct-14 04:00N 29°50' W 092°00'2 5.1
2017-Oct-14 03:30N 29°49' W 092°03'3 5.4
2017-Oct-14 03:01N 29°48' W 092°06'3 5.5
2017-Oct-14 02:31N 29°47' W 092°09'3 5.4
2017-Oct-14 02:00N 29°47' W 092°12'3 5.4
2017-Oct-14 01:30N 29°48' W 092°15'3 5.6
2017-Oct-14 01:00N 29°50' W 092°18'41 5.1
2017-Oct-13 16:53N 29°56' W 093°05'2 4.2
2017-Oct-13 16:30N 29°56' W 093°07'3 5.2
2017-Oct-13 16:01N 29°56' W 093°10'3 5.5
2017-Oct-13 15:31N 29°58' W 093°12'3 5.3
2017-Oct-13 15:00N 30°01' W 093°14'1 2.4
2017-Oct-13 14:30N 30°02' W 093°14'2 3.0
2017-Oct-13 14:01N 30°03' W 093°16'2 4.9
2017-Oct-13 13:31N 30°05' W 093°17'1 2.7
2017-Oct-13 13:00N 30°06' W 093°18'2 3.5
2017-Oct-13 12:30N 30°05' W 093°20'3 5.0
2017-Oct-13 12:00N 30°04' W 093°22'3 5.4
2017-Oct-13 11:31N 30°04' W 093°25'2 4.1
2017-Oct-13 11:01N 30°04' W 093°28'3 5.4
2017-Oct-13 10:30N 30°04' W 093°31'3 5.4
2017-Oct-13 09:59N 30°04' W 093°34'3 5.2
2017-Oct-13 09:30N 30°04' W 093°37'3 5.4
2017-Oct-13 09:00N 30°04' W 093°40'2 4.7
2017-Oct-13 08:30N 30°03' W 093°43'2 4.4
2017-Oct-13 08:00N 30°01' W 093°44'2 3.4
2017-Oct-13 07:30N 30°00' W 093°46'0 0.1
2017-Oct-13 07:00N 30°00' W 093°46'5 3.5
2017-Oct-13 05:31N 29°58' W 093°51'0 2.7
2017-Oct-13 05:28N 29°58' W 093°51'2 0.1
2017-Oct-12 05:43N 29°59' W 093°50'3 4.1
2017-Oct-12 05:03N 29°60' W 093°47'0 3.7
2017-Oct-12 05:00N 29°60' W 093°47'1 2.5
2017-Oct-12 04:30N 30°01' W 093°46'0 0.0
2017-Oct-12 04:00N 30°01' W 093°46'0 0.1
2017-Oct-12 03:30N 30°01' W 093°46'2 2.8
2017-Oct-12 02:48N 30°02' W 093°44'1 4.3
2017-Oct-12 02:30N 30°03' W 093°43'3 5.1
2017-Oct-12 02:00N 30°04' W 093°40'2 4.9
2017-Oct-12 01:30N 30°04' W 093°38'2 4.8
2017-Oct-12 01:00N 30°04' W 093°35'2 4.6
2017-Oct-12 00:30N 30°04' W 093°32'2 4.5
2017-Oct-12 00:00N 30°04' W 093°29'2 4.8
2017-Oct-11 23:31N 30°04' W 093°27'2 4.7
2017-Oct-11 23:01N 30°04' W 093°24'2 4.2
2017-Oct-11 22:31N 30°04' W 093°22'1 2.9
2017-Oct-11 22:00N 30°05' W 093°20'2 3.5
2017-Oct-11 21:30N 30°06' W 093°19'1 2.1
2017-Oct-11 21:00N 30°06' W 093°18'1 2.8
2017-Oct-11 20:30N 30°05' W 093°17'0 0.5
2017-Oct-11 20:00N 30°04' W 093°16'0 0.1
2017-Oct-11 19:30N 30°04' W 093°16'0 0.1
2017-Oct-11 19:00N 30°05' W 093°16'0 0.0
2017-Oct-11 18:30N 30°05' W 093°16'0 0.0
2017-Oct-11 18:01N 30°05' W 093°16'0 0.0
2017-Oct-11 17:31N 30°05' W 093°16'0 0.0
2017-Oct-11 17:00N 30°05' W 093°16'59 3.5
2017-Oct-11 00:00N 29°47' W 092°12'1 2.1
2017-Oct-10 23:30N 29°47' W 092°11'2 3.7
2017-Oct-10 23:01N 29°47' W 092°09'3 5.2
2017-Oct-10 22:31N 29°48' W 092°06'2 5.0
2017-Oct-10 22:00N 29°49' W 092°03'  

Dump ship's entire track history